sensor_id;sensor_type;location;lat;lon;timestamp;P1;durP1;ratioP1;P2;durP2;ratioP2
64932;SDS011;51446;53.850;10.662;2023-06-14T00:01:30;5.70;;;2.57;;
64932;SDS011;51446;53.850;10.662;2023-06-14T00:03:59;5.03;;;2.40;;
64932;SDS011;51446;53.850;10.662;2023-06-14T00:06:25;4.82;;;2.60;;
64932;SDS011;51446;53.850;10.662;2023-06-14T00:08:51;6.67;;;2.77;;
64932;SDS011;51446;53.850;10.662;2023-06-14T00:11:16;8.00;;;3.07;;
64932;SDS011;51446;53.850;10.662;2023-06-14T00:13:41;5.00;;;2.80;;
64932;SDS011;51446;53.850;10.662;2023-06-14T00:16:08;4.60;;;2.60;;
64932;SDS011;51446;53.850;10.662;2023-06-14T00:18:33;3.95;;;2.78;;
64932;SDS011;51446;53.850;10.662;2023-06-14T00:20:59;5.03;;;2.70;;
64932;SDS011;51446;53.850;10.662;2023-06-14T00:23:24;7.70;;;2.80;;
64932;SDS011;51446;53.850;10.662;2023-06-14T00:25:49;5.27;;;2.63;;
64932;SDS011;51446;53.850;10.662;2023-06-14T00:28:14;4.63;;;2.63;;
64932;SDS011;51446;53.850;10.662;2023-06-14T00:30:40;7.90;;;2.60;;
64932;SDS011;51446;53.850;10.662;2023-06-14T00:33:05;6.20;;;2.90;;
64932;SDS011;51446;53.850;10.662;2023-06-14T00:35:30;6.90;;;2.57;;
64932;SDS011;51446;53.850;10.662;2023-06-14T00:37:55;4.63;;;2.93;;
64932;SDS011;51446;53.850;10.662;2023-06-14T00:40:21;4.67;;;2.80;;
64932;SDS011;51446;53.850;10.662;2023-06-14T00:42:47;6.40;;;2.60;;
64932;SDS011;51446;53.850;10.662;2023-06-14T00:45:12;7.73;;;2.57;;
64932;SDS011;51446;53.850;10.662;2023-06-14T00:47:38;4.30;;;2.70;;
64932;SDS011;51446;53.850;10.662;2023-06-14T00:50:07;7.53;;;2.50;;
64932;SDS011;51446;53.850;10.662;2023-06-14T00:52:34;8.30;;;3.28;;
64932;SDS011;51446;53.850;10.662;2023-06-14T00:54:59;5.43;;;2.50;;
64932;SDS011;51446;53.850;10.662;2023-06-14T00:57:25;6.05;;;2.88;;
64932;SDS011;51446;53.850;10.662;2023-06-14T00:59:51;6.72;;;2.85;;
64932;SDS011;51446;53.850;10.662;2023-06-14T01:02:17;4.93;;;2.90;;
64932;SDS011;51446;53.850;10.662;2023-06-14T01:04:43;10.00;;;3.43;;
64932;SDS011;51446;53.850;10.662;2023-06-14T01:12:23;5.97;;;2.83;;
64932;SDS011;51446;53.850;10.662;2023-06-14T01:14:53;6.35;;;3.03;;
64932;SDS011;51446;53.850;10.662;2023-06-14T01:17:20;5.85;;;3.17;;
64932;SDS011;51446;53.850;10.662;2023-06-14T01:19:46;5.00;;;2.65;;
64932;SDS011;51446;53.850;10.662;2023-06-14T01:22:12;6.80;;;3.45;;
64932;SDS011;51446;53.850;10.662;2023-06-14T01:24:37;9.90;;;3.20;;
64932;SDS011;51446;53.850;10.662;2023-06-14T01:27:04;6.18;;;3.15;;
64932;SDS011;51446;53.850;10.662;2023-06-14T01:29:32;8.60;;;3.37;;
64932;SDS011;51446;53.850;10.662;2023-06-14T01:31:58;4.80;;;2.80;;
64932;SDS011;51446;53.850;10.662;2023-06-14T01:34:24;3.38;;;2.60;;
64932;SDS011;51446;53.850;10.662;2023-06-14T01:36:49;6.83;;;2.70;;
64932;SDS011;51446;53.850;10.662;2023-06-14T01:39:16;6.00;;;2.90;;
64932;SDS011;51446;53.850;10.662;2023-06-14T01:41:42;5.77;;;3.13;;
64932;SDS011;51446;53.850;10.662;2023-06-14T01:44:10;6.27;;;3.13;;
64932;SDS011;51446;53.850;10.662;2023-06-14T01:46:38;8.43;;;3.08;;
64932;SDS011;51446;53.850;10.662;2023-06-14T01:49:05;5.70;;;2.67;;
64932;SDS011;51446;53.850;10.662;2023-06-14T01:51:30;5.77;;;3.20;;
64932;SDS011;51446;53.850;10.662;2023-06-14T01:53:56;7.47;;;3.00;;
64932;SDS011;51446;53.850;10.662;2023-06-14T01:56:22;4.47;;;2.88;;
64932;SDS011;51446;53.850;10.662;2023-06-14T01:58:47;7.33;;;2.67;;
64932;SDS011;51446;53.850;10.662;2023-06-14T02:01:13;5.47;;;2.75;;
64932;SDS011;51446;53.850;10.662;2023-06-14T02:03:41;8.13;;;3.00;;
64932;SDS011;51446;53.850;10.662;2023-06-14T02:06:07;5.85;;;3.03;;
64932;SDS011;51446;53.850;10.662;2023-06-14T02:08:32;6.03;;;3.00;;
64932;SDS011;51446;53.850;10.662;2023-06-14T02:10:58;5.10;;;2.80;;
64932;SDS011;51446;53.850;10.662;2023-06-14T02:13:23;6.15;;;3.10;;
64932;SDS011;51446;53.850;10.662;2023-06-14T02:15:48;7.87;;;3.60;;
64932;SDS011;51446;53.850;10.662;2023-06-14T02:18:16;9.33;;;2.90;;
64932;SDS011;51446;53.850;10.662;2023-06-14T02:20:41;6.00;;;3.50;;
64932;SDS011;51446;53.850;10.662;2023-06-14T02:23:06;7.80;;;3.13;;
64932;SDS011;51446;53.850;10.662;2023-06-14T02:25:33;7.25;;;3.42;;
64932;SDS011;51446;53.850;10.662;2023-06-14T02:27:58;6.00;;;3.20;;
64932;SDS011;51446;53.850;10.662;2023-06-14T02:30:23;8.93;;;3.50;;
64932;SDS011;51446;53.850;10.662;2023-06-14T02:32:49;5.93;;;3.23;;
64932;SDS011;51446;53.850;10.662;2023-06-14T02:35:16;7.10;;;2.85;;
64932;SDS011;51446;53.850;10.662;2023-06-14T02:37:41;4.10;;;2.83;;
64932;SDS011;51446;53.850;10.662;2023-06-14T02:40:07;5.00;;;3.00;;
64932;SDS011;51446;53.850;10.662;2023-06-14T02:42:34;7.78;;;3.35;;
64932;SDS011;51446;53.850;10.662;2023-06-14T02:44:59;9.45;;;3.42;;
64932;SDS011;51446;53.850;10.662;2023-06-14T02:47:25;14.53;;;3.10;;
64932;SDS011;51446;53.850;10.662;2023-06-14T02:49:50;6.67;;;3.10;;
64932;SDS011;51446;53.850;10.662;2023-06-14T02:52:16;10.47;;;4.10;;
64932;SDS011;51446;53.850;10.662;2023-06-14T02:54:41;6.37;;;3.17;;
64932;SDS011;51446;53.850;10.662;2023-06-14T02:57:07;5.40;;;3.47;;
64932;SDS011;51446;53.850;10.662;2023-06-14T02:59:33;5.23;;;3.10;;
64932;SDS011;51446;53.850;10.662;2023-06-14T03:01:58;4.32;;;3.05;;
64932;SDS011;51446;53.850;10.662;2023-06-14T03:04:24;5.83;;;3.30;;
64932;SDS011;51446;53.850;10.662;2023-06-14T03:06:50;6.47;;;3.47;;
64932;SDS011;51446;53.850;10.662;2023-06-14T03:09:16;6.77;;;2.70;;
64932;SDS011;51446;53.850;10.662;2023-06-14T03:11:41;5.70;;;3.17;;
64932;SDS011;51446;53.850;10.662;2023-06-14T03:14:06;9.87;;;3.30;;
64932;SDS011;51446;53.850;10.662;2023-06-14T03:16:33;6.33;;;3.30;;
64932;SDS011;51446;53.850;10.662;2023-06-14T03:18:58;5.93;;;3.20;;
64932;SDS011;51446;53.850;10.662;2023-06-14T03:21:24;8.30;;;3.53;;
64932;SDS011;51446;53.850;10.662;2023-06-14T03:23:49;5.85;;;3.28;;
64932;SDS011;51446;53.850;10.662;2023-06-14T03:26:15;5.77;;;3.27;;
64932;SDS011;51446;53.850;10.662;2023-06-14T03:28:43;8.95;;;3.00;;
64932;SDS011;51446;53.850;10.662;2023-06-14T03:31:09;5.22;;;3.17;;
64932;SDS011;51446;53.850;10.662;2023-06-14T03:33:34;7.47;;;2.90;;
64932;SDS011;51446;53.850;10.662;2023-06-14T03:36:01;4.40;;;2.93;;
64932;SDS011;51446;53.850;10.662;2023-06-14T03:38:27;8.38;;;3.58;;
64932;SDS011;51446;53.850;10.662;2023-06-14T03:40:52;6.23;;;3.10;;
64932;SDS011;51446;53.850;10.662;2023-06-14T03:43:18;6.27;;;3.27;;
64932;SDS011;51446;53.850;10.662;2023-06-14T03:45:43;8.00;;;2.90;;
64932;SDS011;51446;53.850;10.662;2023-06-14T03:48:08;8.20;;;2.90;;
64932;SDS011;51446;53.850;10.662;2023-06-14T03:50:34;5.38;;;3.20;;
64932;SDS011;51446;53.850;10.662;2023-06-14T03:53:00;5.67;;;3.10;;
64932;SDS011;51446;53.850;10.662;2023-06-14T03:55:26;7.88;;;2.92;;
64932;SDS011;51446;53.850;10.662;2023-06-14T03:57:52;6.07;;;3.40;;
64932;SDS011;51446;53.850;10.662;2023-06-14T04:00:17;7.25;;;3.17;;
64932;SDS011;51446;53.850;10.662;2023-06-14T04:02:43;4.67;;;2.90;;
64932;SDS011;51446;53.850;10.662;2023-06-14T04:05:09;8.20;;;3.30;;
64932;SDS011;51446;53.850;10.662;2023-06-14T04:07:35;6.22;;;3.33;;
64932;SDS011;51446;53.850;10.662;2023-06-14T04:10:04;9.13;;;3.20;;
64932;SDS011;51446;53.850;10.662;2023-06-14T04:12:33;6.35;;;3.33;;
64932;SDS011;51446;53.850;10.662;2023-06-14T04:14:58;9.20;;;3.70;;
64932;SDS011;51446;53.850;10.662;2023-06-14T04:17:23;11.43;;;3.33;;
64932;SDS011;51446;53.850;10.662;2023-06-14T04:19:49;7.43;;;3.03;;
64932;SDS011;51446;53.850;10.662;2023-06-14T04:22:14;6.13;;;3.00;;
64932;SDS011;51446;53.850;10.662;2023-06-14T04:24:39;4.97;;;2.90;;
64932;SDS011;51446;53.850;10.662;2023-06-14T04:27:07;5.82;;;2.88;;
64932;SDS011;51446;53.850;10.662;2023-06-14T04:29:32;5.97;;;2.90;;
64932;SDS011;51446;53.850;10.662;2023-06-14T04:31:58;5.45;;;2.72;;
64932;SDS011;51446;53.850;10.662;2023-06-14T04:34:26;7.07;;;2.92;;
64932;SDS011;51446;53.850;10.662;2023-06-14T04:36:55;9.37;;;3.30;;
64932;SDS011;51446;53.850;10.662;2023-06-14T04:39:21;5.85;;;2.55;;
64932;SDS011;51446;53.850;10.662;2023-06-14T04:41:47;4.50;;;2.60;;
64932;SDS011;51446;53.850;10.662;2023-06-14T04:44:12;10.40;;;2.93;;
64932;SDS011;51446;53.850;10.662;2023-06-14T04:46:38;6.10;;;3.22;;
64932;SDS011;51446;53.850;10.662;2023-06-14T04:49:14;5.10;;;2.80;;
64932;SDS011;51446;53.850;10.662;2023-06-14T04:51:40;4.25;;;2.60;;
64932;SDS011;51446;53.850;10.662;2023-06-14T04:54:07;6.15;;;2.85;;
64932;SDS011;51446;53.850;10.662;2023-06-14T04:56:35;12.65;;;4.18;;
64932;SDS011;51446;53.850;10.662;2023-06-14T04:59:02;5.15;;;2.95;;
64932;SDS011;51446;53.850;10.662;2023-06-14T05:01:29;6.63;;;3.00;;
64932;SDS011;51446;53.850;10.662;2023-06-14T05:03:56;6.40;;;3.03;;
64932;SDS011;51446;53.850;10.662;2023-06-14T05:06:21;8.17;;;2.87;;
64932;SDS011;51446;53.850;10.662;2023-06-14T05:08:47;4.28;;;3.20;;
64932;SDS011;51446;53.850;10.662;2023-06-14T05:11:12;8.13;;;3.00;;
64932;SDS011;51446;53.850;10.662;2023-06-14T05:13:37;4.60;;;2.70;;
64932;SDS011;51446;53.850;10.662;2023-06-14T05:16:04;6.18;;;3.10;;
64932;SDS011;51446;53.850;10.662;2023-06-14T05:18:30;5.10;;;2.40;;
64932;SDS011;51446;53.850;10.662;2023-06-14T05:20:55;5.53;;;2.67;;
64932;SDS011;51446;53.850;10.662;2023-06-14T05:23:20;6.90;;;2.90;;
64932;SDS011;51446;53.850;10.662;2023-06-14T05:25:45;5.17;;;2.50;;
64932;SDS011;51446;53.850;10.662;2023-06-14T05:28:11;5.67;;;2.87;;
64932;SDS011;51446;53.850;10.662;2023-06-14T05:30:37;5.57;;;2.93;;
64932;SDS011;51446;53.850;10.662;2023-06-14T05:33:04;6.20;;;3.08;;
64932;SDS011;51446;53.850;10.662;2023-06-14T05:35:30;7.40;;;3.20;;
64932;SDS011;51446;53.850;10.662;2023-06-14T05:37:55;7.30;;;2.90;;
64932;SDS011;51446;53.850;10.662;2023-06-14T05:40:21;6.95;;;2.88;;
64932;SDS011;51446;53.850;10.662;2023-06-14T05:42:46;5.20;;;3.10;;
64932;SDS011;51446;53.850;10.662;2023-06-14T05:45:12;6.27;;;2.90;;
64932;SDS011;51446;53.850;10.662;2023-06-14T05:47:37;7.63;;;3.30;;
64932;SDS011;51446;53.850;10.662;2023-06-14T05:50:02;8.17;;;2.90;;
64932;SDS011;51446;53.850;10.662;2023-06-14T05:52:28;8.73;;;3.10;;
64932;SDS011;51446;53.850;10.662;2023-06-14T05:54:54;7.90;;;3.40;;
64932;SDS011;51446;53.850;10.662;2023-06-14T05:57:20;4.60;;;2.73;;
64932;SDS011;51446;53.850;10.662;2023-06-14T05:59:45;8.80;;;3.20;;
64932;SDS011;51446;53.850;10.662;2023-06-14T06:02:10;5.03;;;2.70;;
64932;SDS011;51446;53.850;10.662;2023-06-14T06:04:35;3.60;;;2.47;;
64932;SDS011;51446;53.850;10.662;2023-06-14T06:07:01;4.80;;;2.50;;
64932;SDS011;51446;53.850;10.662;2023-06-14T06:09:26;5.77;;;2.60;;
64932;SDS011;51446;53.850;10.662;2023-06-14T06:11:51;8.97;;;3.00;;
64932;SDS011;51446;53.850;10.662;2023-06-14T06:14:16;9.10;;;2.80;;
64932;SDS011;51446;53.850;10.662;2023-06-14T06:16:42;11.27;;;3.50;;
64932;SDS011;51446;53.850;10.662;2023-06-14T06:19:07;6.90;;;2.53;;
64932;SDS011;51446;53.850;10.662;2023-06-14T06:21:32;9.43;;;2.87;;
64932;SDS011;51446;53.850;10.662;2023-06-14T06:23:58;8.93;;;2.60;;
64932;SDS011;51446;53.850;10.662;2023-06-14T06:26:23;5.20;;;2.60;;
64932;SDS011;51446;53.850;10.662;2023-06-14T06:28:48;5.87;;;2.63;;
64932;SDS011;51446;53.850;10.662;2023-06-14T06:31:13;8.90;;;2.77;;
64932;SDS011;51446;53.850;10.662;2023-06-14T06:33:39;6.33;;;2.57;;
64932;SDS011;51446;53.850;10.662;2023-06-14T06:36:04;9.40;;;2.67;;
64932;SDS011;51446;53.850;10.662;2023-06-14T06:38:30;7.57;;;2.75;;
64932;SDS011;51446;53.850;10.662;2023-06-14T06:40:55;4.50;;;2.53;;
64932;SDS011;51446;53.850;10.662;2023-06-14T06:43:21;10.57;;;2.80;;
64932;SDS011;51446;53.850;10.662;2023-06-14T06:45:46;7.37;;;2.50;;
64932;SDS011;51446;53.850;10.662;2023-06-14T06:48:12;6.33;;;2.30;;
64932;SDS011;51446;53.850;10.662;2023-06-14T06:50:37;6.33;;;2.40;;
64932;SDS011;51446;53.850;10.662;2023-06-14T06:53:02;3.93;;;2.20;;
64932;SDS011;51446;53.850;10.662;2023-06-14T06:55:28;6.30;;;2.70;;
64932;SDS011;51446;53.850;10.662;2023-06-14T06:57:53;8.87;;;2.63;;
64932;SDS011;51446;53.850;10.662;2023-06-14T07:00:20;3.15;;;2.00;;
64932;SDS011;51446;53.850;10.662;2023-06-14T07:02:46;5.10;;;2.35;;
64932;SDS011;51446;53.850;10.662;2023-06-14T07:05:12;5.33;;;2.27;;
64932;SDS011;51446;53.850;10.662;2023-06-14T07:07:37;5.63;;;2.53;;
64932;SDS011;51446;53.850;10.662;2023-06-14T07:10:03;9.57;;;2.33;;
64932;SDS011;51446;53.850;10.662;2023-06-14T07:12:30;5.60;;;2.17;;
64932;SDS011;51446;53.850;10.662;2023-06-14T07:14:58;7.53;;;2.30;;
64932;SDS011;51446;53.850;10.662;2023-06-14T07:17:24;6.80;;;2.37;;
64932;SDS011;51446;53.850;10.662;2023-06-14T07:19:49;4.03;;;2.20;;
64932;SDS011;51446;53.850;10.662;2023-06-14T07:22:15;7.15;;;2.20;;
64932;SDS011;51446;53.850;10.662;2023-06-14T07:24:41;5.70;;;2.27;;
64932;SDS011;51446;53.850;10.662;2023-06-14T07:27:07;6.25;;;2.25;;
64932;SDS011;51446;53.850;10.662;2023-06-14T07:29:32;3.97;;;2.23;;
64932;SDS011;51446;53.850;10.662;2023-06-14T07:31:58;6.63;;;2.23;;
64932;SDS011;51446;53.850;10.662;2023-06-14T07:34:23;8.30;;;2.00;;
64932;SDS011;51446;53.850;10.662;2023-06-14T07:36:48;4.23;;;2.00;;
64932;SDS011;51446;53.850;10.662;2023-06-14T07:39:13;5.93;;;2.37;;
64932;SDS011;51446;53.850;10.662;2023-06-14T07:41:39;7.47;;;2.20;;
64932;SDS011;51446;53.850;10.662;2023-06-14T07:44:04;6.87;;;2.10;;
64932;SDS011;51446;53.850;10.662;2023-06-14T07:46:30;5.95;;;2.50;;
64932;SDS011;51446;53.850;10.662;2023-06-14T07:48:55;6.37;;;2.30;;
64932;SDS011;51446;53.850;10.662;2023-06-14T07:51:20;4.70;;;2.17;;
64932;SDS011;51446;53.850;10.662;2023-06-14T07:53:47;7.28;;;2.50;;
64932;SDS011;51446;53.850;10.662;2023-06-14T07:56:13;10.50;;;2.63;;
64932;SDS011;51446;53.850;10.662;2023-06-14T07:58:38;5.40;;;2.07;;
64932;SDS011;51446;53.850;10.662;2023-06-14T08:01:04;5.67;;;2.40;;
64932;SDS011;51446;53.850;10.662;2023-06-14T08:03:32;6.75;;;2.20;;
64932;SDS011;51446;53.850;10.662;2023-06-14T08:05:58;8.30;;;2.30;;
64932;SDS011;51446;53.850;10.662;2023-06-14T08:08:23;4.67;;;2.17;;
64932;SDS011;51446;53.850;10.662;2023-06-14T08:10:48;5.70;;;2.17;;
64932;SDS011;51446;53.850;10.662;2023-06-14T08:13:14;3.73;;;2.00;;
64932;SDS011;51446;53.850;10.662;2023-06-14T08:15:39;6.70;;;2.43;;
64932;SDS011;51446;53.850;10.662;2023-06-14T08:18:05;4.03;;;2.40;;
64932;SDS011;51446;53.850;10.662;2023-06-14T08:20:30;7.63;;;2.40;;
64932;SDS011;51446;53.850;10.662;2023-06-14T08:22:56;4.93;;;2.00;;
64932;SDS011;51446;53.850;10.662;2023-06-14T08:25:22;5.38;;;2.10;;
64932;SDS011;51446;53.850;10.662;2023-06-14T08:27:47;6.63;;;2.40;;
64932;SDS011;51446;53.850;10.662;2023-06-14T08:30:13;4.70;;;2.47;;
64932;SDS011;51446;53.850;10.662;2023-06-14T08:32:38;4.13;;;2.03;;
64932;SDS011;51446;53.850;10.662;2023-06-14T08:35:04;6.83;;;2.10;;
64932;SDS011;51446;53.850;10.662;2023-06-14T08:37:30;3.73;;;1.90;;
64932;SDS011;51446;53.850;10.662;2023-06-14T08:39:55;6.47;;;2.20;;
64932;SDS011;51446;53.850;10.662;2023-06-14T08:42:21;5.33;;;2.27;;
64932;SDS011;51446;53.850;10.662;2023-06-14T08:44:49;5.65;;;2.00;;
64932;SDS011;51446;53.850;10.662;2023-06-14T08:47:14;7.70;;;2.47;;
64932;SDS011;51446;53.850;10.662;2023-06-14T08:49:41;8.73;;;2.10;;
64932;SDS011;51446;53.850;10.662;2023-06-14T08:52:12;5.03;;;2.30;;
64932;SDS011;51446;53.850;10.662;2023-06-14T08:54:38;7.77;;;2.00;;
64932;SDS011;51446;53.850;10.662;2023-06-14T08:57:09;5.32;;;2.20;;
64932;SDS011;51446;53.850;10.662;2023-06-14T08:59:37;3.22;;;2.00;;
64932;SDS011;51446;53.850;10.662;2023-06-14T09:02:10;8.77;;;2.05;;
64932;SDS011;51446;53.850;10.662;2023-06-14T09:04:38;6.70;;;2.40;;
64932;SDS011;51446;53.850;10.662;2023-06-14T09:07:04;4.90;;;2.30;;
64932;SDS011;51446;53.850;10.662;2023-06-14T09:09:31;7.53;;;2.10;;
64932;SDS011;51446;53.850;10.662;2023-06-14T09:11:57;5.32;;;1.95;;
64932;SDS011;51446;53.850;10.662;2023-06-14T09:14:25;4.80;;;1.83;;
64932;SDS011;51446;53.850;10.662;2023-06-14T09:16:54;7.15;;;2.30;;
64932;SDS011;51446;53.850;10.662;2023-06-14T09:19:25;12.38;;;2.20;;
64932;SDS011;51446;53.850;10.662;2023-06-14T09:21:51;6.57;;;2.00;;
64932;SDS011;51446;53.850;10.662;2023-06-14T09:24:17;8.20;;;2.13;;
64932;SDS011;51446;53.850;10.662;2023-06-14T09:26:46;5.43;;;2.25;;
64932;SDS011;51446;53.850;10.662;2023-06-14T09:29:12;5.05;;;2.20;;
64932;SDS011;51446;53.850;10.662;2023-06-14T09:31:37;9.93;;;2.23;;
64932;SDS011;51446;53.850;10.662;2023-06-14T09:34:02;4.00;;;1.90;;
64932;SDS011;51446;53.850;10.662;2023-06-14T09:36:28;5.23;;;2.20;;
64932;SDS011;51446;53.850;10.662;2023-06-14T09:38:56;4.72;;;1.92;;
64932;SDS011;51446;53.850;10.662;2023-06-14T09:41:39;9.48;;;2.00;;
64932;SDS011;51446;53.850;10.662;2023-06-14T09:44:06;6.05;;;2.00;;
64932;SDS011;51446;53.850;10.662;2023-06-14T09:46:32;10.60;;;2.00;;
64932;SDS011;51446;53.850;10.662;2023-06-14T09:48:58;8.47;;;1.83;;
64932;SDS011;51446;53.850;10.662;2023-06-14T09:51:24;6.85;;;2.38;;
64932;SDS011;51446;53.850;10.662;2023-06-14T09:53:51;5.93;;;2.13;;
64932;SDS011;51446;53.850;10.662;2023-06-14T09:56:24;5.22;;;1.90;;
64932;SDS011;51446;53.850;10.662;2023-06-14T09:58:54;7.20;;;2.20;;
64932;SDS011;51446;53.850;10.662;2023-06-14T10:01:20;5.30;;;2.00;;
64932;SDS011;51446;53.850;10.662;2023-06-14T10:03:46;4.90;;;2.20;;
64932;SDS011;51446;53.850;10.662;2023-06-14T10:06:14;3.92;;;1.85;;
64932;SDS011;51446;53.850;10.662;2023-06-14T10:08:41;8.88;;;2.22;;
64932;SDS011;51446;53.850;10.662;2023-06-14T10:11:06;5.07;;;1.93;;
64932;SDS011;51446;53.850;10.662;2023-06-14T10:13:32;4.00;;;2.10;;
64932;SDS011;51446;53.850;10.662;2023-06-14T10:16:33;5.68;;;2.38;;
64932;SDS011;51446;53.850;10.662;2023-06-14T10:19:11;7.85;;;2.17;;
64932;SDS011;51446;53.850;10.662;2023-06-14T10:21:54;4.23;;;1.97;;
64932;SDS011;51446;53.850;10.662;2023-06-14T10:24:32;6.75;;;1.98;;
64932;SDS011;51446;53.850;10.662;2023-06-14T10:27:00;6.13;;;2.15;;
64932;SDS011;51446;53.850;10.662;2023-06-14T10:29:26;9.43;;;1.92;;
64932;SDS011;51446;53.850;10.662;2023-06-14T10:31:57;9.37;;;1.97;;
64932;SDS011;51446;53.850;10.662;2023-06-14T10:34:27;10.25;;;2.25;;
64932;SDS011;51446;53.850;10.662;2023-06-14T10:39:27;5.78;;;2.28;;
64932;SDS011;51446;53.850;10.662;2023-06-14T10:41:53;6.13;;;2.47;;
64932;SDS011;51446;53.850;10.662;2023-06-14T10:46:45;9.80;;;2.33;;
64932;SDS011;51446;53.850;10.662;2023-06-14T10:49:11;7.55;;;2.10;;
64932;SDS011;51446;53.850;10.662;2023-06-14T10:51:41;10.33;;;2.20;;
64932;SDS011;51446;53.850;10.662;2023-06-14T10:54:11;3.75;;;2.05;;
64932;SDS011;51446;53.850;10.662;2023-06-14T10:56:37;7.73;;;2.33;;
64932;SDS011;51446;53.850;10.662;2023-06-14T10:59:02;7.80;;;2.10;;
64932;SDS011;51446;53.850;10.662;2023-06-14T11:01:32;5.33;;;2.40;;
64932;SDS011;51446;53.850;10.662;2023-06-14T11:04:08;6.88;;;2.17;;
64932;SDS011;51446;53.850;10.662;2023-06-14T11:06:48;6.97;;;2.13;;
64932;SDS011;51446;53.850;10.662;2023-06-14T11:11:57;4.40;;;2.13;;
64932;SDS011;51446;53.850;10.662;2023-06-14T11:14:24;5.03;;;2.10;;
64932;SDS011;51446;53.850;10.662;2023-06-14T11:16:50;5.07;;;2.05;;
64932;SDS011;51446;53.850;10.662;2023-06-14T11:19:16;4.30;;;1.70;;
64932;SDS011;51446;53.850;10.662;2023-06-14T11:21:42;4.97;;;1.90;;
64932;SDS011;51446;53.850;10.662;2023-06-14T11:24:11;6.13;;;2.10;;
64932;SDS011;51446;53.850;10.662;2023-06-14T11:26:37;6.87;;;2.00;;
64932;SDS011;51446;53.850;10.662;2023-06-14T11:29:03;7.93;;;2.00;;
64932;SDS011;51446;53.850;10.662;2023-06-14T11:31:28;6.67;;;2.50;;
64932;SDS011;51446;53.850;10.662;2023-06-14T11:33:55;5.35;;;1.80;;
64932;SDS011;51446;53.850;10.662;2023-06-14T11:36:21;6.47;;;2.22;;
64932;SDS011;51446;53.850;10.662;2023-06-14T11:38:47;6.97;;;2.27;;
64932;SDS011;51446;53.850;10.662;2023-06-14T11:41:13;5.70;;;2.07;;
64932;SDS011;51446;53.850;10.662;2023-06-14T11:43:39;9.03;;;2.20;;
64932;SDS011;51446;53.850;10.662;2023-06-14T11:46:11;2.60;;;1.90;;
64932;SDS011;51446;53.850;10.662;2023-06-14T11:48:40;5.53;;;2.15;;
64932;SDS011;51446;53.850;10.662;2023-06-14T11:51:06;4.65;;;1.88;;
64932;SDS011;51446;53.850;10.662;2023-06-14T11:53:31;5.40;;;2.10;;
64932;SDS011;51446;53.850;10.662;2023-06-14T11:55:57;6.90;;;2.00;;
64932;SDS011;51446;53.850;10.662;2023-06-14T11:58:23;4.28;;;2.00;;
64932;SDS011;51446;53.850;10.662;2023-06-14T12:00:48;7.10;;;1.93;;
64932;SDS011;51446;53.850;10.662;2023-06-14T12:03:14;6.30;;;1.92;;
64932;SDS011;51446;53.850;10.662;2023-06-14T12:05:40;10.47;;;1.90;;
64932;SDS011;51446;53.850;10.662;2023-06-14T12:08:05;7.10;;;1.90;;
64932;SDS011;51446;53.850;10.662;2023-06-14T12:10:39;7.90;;;1.90;;
64932;SDS011;51446;53.850;10.662;2023-06-14T12:13:05;7.50;;;2.00;;
64932;SDS011;51446;53.850;10.662;2023-06-14T12:15:31;6.20;;;1.87;;
64932;SDS011;51446;53.850;10.662;2023-06-14T12:17:57;5.80;;;1.70;;
64932;SDS011;51446;53.850;10.662;2023-06-14T12:20:23;5.13;;;1.90;;
64932;SDS011;51446;53.850;10.662;2023-06-14T12:22:55;9.30;;;1.93;;
64932;SDS011;51446;53.850;10.662;2023-06-14T12:25:31;6.85;;;1.95;;
64932;SDS011;51446;53.850;10.662;2023-06-14T12:27:58;4.03;;;1.77;;
64932;SDS011;51446;53.850;10.662;2023-06-14T12:30:28;8.63;;;2.05;;
64932;SDS011;51446;53.850;10.662;2023-06-14T12:32:53;6.03;;;1.90;;
64932;SDS011;51446;53.850;10.662;2023-06-14T12:35:18;5.13;;;2.20;;
64932;SDS011;51446;53.850;10.662;2023-06-14T12:37:44;4.33;;;2.00;;
64932;SDS011;51446;53.850;10.662;2023-06-14T12:40:10;6.85;;;2.00;;
64932;SDS011;51446;53.850;10.662;2023-06-14T12:42:36;7.80;;;2.10;;
64932;SDS011;51446;53.850;10.662;2023-06-14T12:45:02;5.82;;;2.33;;
64932;SDS011;51446;53.850;10.662;2023-06-14T12:47:28;9.57;;;2.40;;
64932;SDS011;51446;53.850;10.662;2023-06-14T12:49:53;9.20;;;2.13;;
64932;SDS011;51446;53.850;10.662;2023-06-14T12:52:18;6.10;;;2.00;;
64932;SDS011;51446;53.850;10.662;2023-06-14T12:54:43;5.83;;;2.27;;
64932;SDS011;51446;53.850;10.662;2023-06-14T12:57:09;8.20;;;2.10;;
64932;SDS011;51446;53.850;10.662;2023-06-14T12:59:34;5.78;;;2.00;;
64932;SDS011;51446;53.850;10.662;2023-06-14T13:02:10;8.93;;;1.90;;
64932;SDS011;51446;53.850;10.662;2023-06-14T13:04:36;5.95;;;2.30;;
64932;SDS011;51446;53.850;10.662;2023-06-14T13:07:02;8.97;;;2.60;;
64932;SDS011;51446;53.850;10.662;2023-06-14T13:09:27;6.00;;;2.10;;
64932;SDS011;51446;53.850;10.662;2023-06-14T13:11:52;5.43;;;2.70;;
64932;SDS011;51446;53.850;10.662;2023-06-14T13:14:17;6.63;;;3.07;;
64932;SDS011;51446;53.850;10.662;2023-06-14T13:16:43;14.40;;;4.30;;
64932;SDS011;51446;53.850;10.662;2023-06-14T13:19:08;6.30;;;2.67;;
64932;SDS011;51446;53.850;10.662;2023-06-14T13:21:34;11.73;;;2.63;;
64932;SDS011;51446;53.850;10.662;2023-06-14T13:23:59;5.40;;;2.10;;
64932;SDS011;51446;53.850;10.662;2023-06-14T13:26:25;10.60;;;3.50;;
64932;SDS011;51446;53.850;10.662;2023-06-14T13:28:50;10.50;;;3.67;;
64932;SDS011;51446;53.850;10.662;2023-06-14T13:31:16;6.60;;;2.60;;
64932;SDS011;51446;53.850;10.662;2023-06-14T13:33:41;6.37;;;2.30;;
64932;SDS011;51446;53.850;10.662;2023-06-14T13:36:06;9.53;;;2.90;;
64932;SDS011;51446;53.850;10.662;2023-06-14T13:38:32;5.73;;;2.80;;
64932;SDS011;51446;53.850;10.662;2023-06-14T13:40:57;9.83;;;3.20;;
64932;SDS011;51446;53.850;10.662;2023-06-14T13:43:22;11.27;;;3.53;;
64932;SDS011;51446;53.850;10.662;2023-06-14T13:45:47;9.30;;;3.03;;
64932;SDS011;51446;53.850;10.662;2023-06-14T13:48:13;9.30;;;2.83;;
64932;SDS011;51446;53.850;10.662;2023-06-14T13:50:38;8.47;;;3.60;;
64932;SDS011;51446;53.850;10.662;2023-06-14T13:53:04;7.57;;;3.20;;
64932;SDS011;51446;53.850;10.662;2023-06-14T13:55:29;7.28;;;3.75;;
64932;SDS011;51446;53.850;10.662;2023-06-14T13:57:55;6.90;;;2.50;;
64932;SDS011;51446;53.850;10.662;2023-06-14T14:00:21;8.27;;;2.80;;
64932;SDS011;51446;53.850;10.662;2023-06-14T14:02:47;10.57;;;3.87;;
64932;SDS011;51446;53.850;10.662;2023-06-14T14:05:12;6.73;;;2.50;;
64932;SDS011;51446;53.850;10.662;2023-06-14T14:07:38;6.63;;;2.30;;
64932;SDS011;51446;53.850;10.662;2023-06-14T14:10:04;9.50;;;2.40;;
64932;SDS011;51446;53.850;10.662;2023-06-14T14:12:30;6.28;;;1.90;;
64932;SDS011;51446;53.850;10.662;2023-06-14T14:14:55;9.03;;;2.03;;
64932;SDS011;51446;53.850;10.662;2023-06-14T14:17:21;7.40;;;2.00;;
64932;SDS011;51446;53.850;10.662;2023-06-14T14:19:46;14.03;;;2.63;;
64932;SDS011;51446;53.850;10.662;2023-06-14T14:22:11;5.07;;;2.40;;
64932;SDS011;51446;53.850;10.662;2023-06-14T14:24:36;7.47;;;3.00;;
64932;SDS011;51446;53.850;10.662;2023-06-14T14:27:02;11.97;;;1.90;;
64932;SDS011;51446;53.850;10.662;2023-06-14T14:29:27;7.90;;;2.20;;
64932;SDS011;51446;53.850;10.662;2023-06-14T14:31:56;5.07;;;1.80;;
64932;SDS011;51446;53.850;10.662;2023-06-14T14:34:22;3.33;;;1.80;;
64932;SDS011;51446;53.850;10.662;2023-06-14T14:36:47;5.82;;;2.38;;
64932;SDS011;51446;53.850;10.662;2023-06-14T14:39:12;5.40;;;2.00;;
64932;SDS011;51446;53.850;10.662;2023-06-14T14:41:38;7.67;;;2.17;;